Time;durP1;ratioP1;P1;durP2;ratioP2;P2;SDS_P1;SDS_P2;PMS_P1;PMS_P2;Temp;Humidity;BMP_temperature;BMP_pressure;BME280_temperature;BME280_humidity;BME280_pressure;Samples;Min_cycle;Max_cycle;Signal;HPM_P1;HPM_P2
2020/12/24 00:01:31;;;;;;;9.47;2.13;;;10.10;99.90;;;;;;4996061;28;20201;-76
2020/12/24 00:03:58;;;;;;;10.50;3.00;;;10.10;99.90;;;;;;4995760;28;20593;-74
2020/12/24 00:06:24;;;;;;;7.33;2.40;;;10.10;99.90;;;;;;4995752;28;20615;-77
2020/12/24 00:08:50;;;;;;;5.97;2.67;;;10.10;99.90;;;;;;4995956;28;20208;-74
2020/12/24 00:11:17;;;;;;;12.50;3.40;;;10.10;99.90;;;;;;4996043;28;20208;-75
2020/12/24 00:13:44;;;;;;;5.83;2.27;;;10.00;99.90;;;;;;4995641;28;20216;-77
2020/12/24 00:16:11;;;;;;;6.93;3.10;;;10.10;99.90;;;;;;4995569;28;20698;-75
2020/12/24 00:18:37;;;;;;;8.17;2.53;;;10.10;99.90;;;;;;4995574;28;20244;-76
2020/12/24 00:21:08;;;;;;;6.13;1.80;;;10.10;99.90;;;;;;4995716;28;20263;-77
2020/12/24 00:23:35;;;;;;;11.97;2.17;;;10.10;99.90;;;;;;4995306;28;20649;-77
2020/12/24 00:26:03;;;;;;;4.47;1.67;;;10.10;99.90;;;;;;4995453;28;20693;-77
2020/12/24 00:28:30;;;;;;;5.33;2.93;;;10.10;99.90;;;;;;4995297;28;20220;-74
2020/12/24 00:30:58;;;;;;;9.87;2.73;;;10.10;99.90;;;;;;4995591;28;20205;-77
2020/12/24 00:33:25;;;;;;;6.33;1.63;;;10.10;99.90;;;;;;4995541;28;20259;-77
2020/12/24 00:35:51;;;;;;;8.03;2.43;;;10.20;99.90;;;;;;4995621;28;20263;-77
2020/12/24 00:38:18;;;;;;;11.13;2.10;;;10.20;99.90;;;;;;4995597;28;20212;-75
2020/12/24 00:40:44;;;;;;;10.70;2.30;;;10.10;99.90;;;;;;4995133;28;20248;-75
2020/12/24 00:43:11;;;;;;;7.53;2.00;;;10.10;99.90;;;;;;4995027;28;20283;-77
2020/12/24 00:45:37;;;;;;;7.93;2.13;;;10.10;99.90;;;;;;4994004;28;20204;-77
2020/12/24 00:48:04;;;;;;;10.90;2.80;;;10.10;99.90;;;;;;4995226;28;20215;-76
2020/12/24 00:50:31;;;;;;;7.97;2.70;;;10.10;99.90;;;;;;4994870;28;20205;-77
2020/12/24 00:52:57;;;;;;;7.83;1.77;;;10.10;99.90;;;;;;4994923;28;20205;-77
2020/12/24 00:55:24;;;;;;;8.63;2.60;;;10.10;99.90;;;;;;4994833;28;20200;-74
2020/12/24 00:57:51;;;;;;;4.97;1.90;;;10.10;99.90;;;;;;4995127;28;20216;-75
2020/12/24 01:00:17;;;;;;;13.37;2.23;;;10.10;99.90;;;;;;4995014;28;20204;-76
2020/12/24 01:02:44;;;;;;;7.10;1.77;;;10.10;99.90;;;;;;4994607;28;20693;-77
2020/12/24 01:05:11;;;;;;;3.03;1.57;;;10.10;99.90;;;;;;4994617;28;20251;-75
2020/12/24 01:07:38;;;;;;;8.73;2.70;;;10.10;99.90;;;;;;4994802;28;20209;-75
2020/12/24 01:10:06;;;;;;;7.60;2.23;;;10.00;99.90;;;;;;4994568;28;20672;-75
2020/12/24 01:12:32;;;;;;;8.03;2.07;;;10.10;99.90;;;;;;4994799;28;20209;-77
2020/12/24 01:14:59;;;;;;;3.23;1.33;;;10.10;99.90;;;;;;4994728;28;20205;-77
2020/12/24 01:17:25;;;;;;;8.10;1.67;;;10.10;99.90;;;;;;4994571;28;20204;-74
2020/12/24 01:19:52;;;;;;;6.50;2.23;;;10.10;99.90;;;;;;4994859;28;20208;-77
2020/12/24 01:22:19;;;;;;;11.33;2.67;;;10.00;99.90;;;;;;4994290;28;20279;-74
2020/12/24 01:24:45;;;;;;;6.20;1.80;;;10.00;99.90;;;;;;4994267;28;20205;-77
2020/12/24 01:27:12;;;;;;;7.27;1.70;;;10.00;99.90;;;;;;4994245;28;20213;-77
2020/12/24 01:29:38;;;;;;;9.93;1.80;;;10.00;99.90;;;;;;4994415;28;20201;-76
2020/12/24 01:32:05;;;;;;;3.27;1.43;;;10.10;99.90;;;;;;4994199;28;20209;-77
2020/12/24 01:34:31;;;;;;;6.10;1.77;;;10.00;99.90;;;;;;4994219;28;20201;-74
2020/12/24 01:37:01;;;;;;;6.53;1.47;;;10.00;99.90;;;;;;4994183;28;20212;-75
2020/12/24 01:39:28;;;;;;;11.33;1.73;;;10.00;99.90;;;;;;4994012;28;20204;-76
2020/12/24 01:41:55;;;;;;;7.73;1.77;;;10.00;99.90;;;;;;4994151;28;20232;-77
2020/12/24 01:44:22;;;;;;;6.27;2.00;;;10.00;99.90;;;;;;4994388;28;20588;-77
2020/12/24 01:46:48;;;;;;;5.97;1.07;;;10.00;99.90;;;;;;4994409;28;20259;-75
2020/12/24 01:49:15;;;;;;;5.00;1.80;;;10.00;99.90;;;;;;4993869;28;20739;-77
2020/12/24 01:51:50;;;;;;;5.87;1.13;;;10.00;99.90;;;;;;4993822;28;20209;-78
2020/12/24 01:54:18;;;;;;;8.27;2.20;;;9.90;99.90;;;;;;4993601;28;20205;-77
2020/12/24 01:56:45;;;;;;;5.17;2.07;;;9.90;99.90;;;;;;4993546;28;20205;-78
2020/12/24 01:59:15;;;;;;;7.87;1.37;;;9.90;99.90;;;;;;4993778;28;20201;-77
2020/12/24 02:01:43;;;;;;;10.50;1.60;;;9.90;99.90;;;;;;4993789;28;20204;-74
2020/12/24 02:04:11;;;;;;;2.07;1.10;;;10.00;99.90;;;;;;4993529;28;20208;-74
2020/12/24 02:06:38;;;;;;;14.03;1.70;;;10.00;99.90;;;;;;4993869;28;20209;-77
2020/12/24 02:09:05;;;;;;;3.97;0.90;;;10.10;99.90;;;;;;4993507;28;20621;-75
2020/12/24 02:11:32;;;;;;;7.57;1.67;;;10.00;99.90;;;;;;4993499;28;20551;-74
2020/12/24 02:13:59;;;;;;;4.17;1.27;;;10.00;99.90;;;;;;4993394;28;20251;-74
2020/12/24 02:16:26;;;;;;;6.73;2.50;;;10.00;99.90;;;;;;4993772;28;20208;-75
2020/12/24 02:18:53;;;;;;;3.07;1.33;;;10.00;99.90;;;;;;4993761;28;20232;-74
2020/12/24 02:21:20;;;;;;;13.90;1.53;;;10.10;99.90;;;;;;4993534;28;20201;-74
2020/12/24 02:23:46;;;;;;;8.03;1.50;;;10.10;99.90;;;;;;4993028;28;20233;-75
2020/12/24 02:26:13;;;;;;;10.00;2.63;;;10.00;99.90;;;;;;4993401;28;20231;-77
2020/12/24 02:28:40;;;;;;;6.33;1.47;;;10.00;99.90;;;;;;4993188;28;20208;-75
2020/12/24 02:31:09;;;;;;;7.37;1.77;;;10.00;99.90;;;;;;4993039;28;20739;-77
2020/12/24 02:33:36;;;;;;;2.70;1.50;;;10.00;99.90;;;;;;4993075;28;20282;-77
2020/12/24 02:36:02;;;;;;;5.40;1.57;;;10.00;99.90;;;;;;4992964;28;20208;-74
2020/12/24 02:38:30;;;;;;;6.53;1.20;;;10.00;99.90;;;;;;4993324;28;20205;-75
2020/12/24 02:40:56;;;;;;;5.40;1.33;;;9.90;99.90;;;;;;4993144;28;20574;-74
2020/12/24 02:43:23;;;;;;;8.33;2.63;;;9.90;99.90;;;;;;4992821;28;20593;-77
2020/12/24 02:45:49;;;;;;;8.83;2.17;;;9.90;99.90;;;;;;4992884;28;20213;-75
2020/12/24 02:48:16;;;;;;;5.77;1.83;;;9.90;99.90;;;;;;4992693;28;20220;-75
2020/12/24 02:50:43;;;;;;;4.83;1.60;;;9.90;99.90;;;;;;4992810;28;20205;-76
2020/12/24 02:53:10;;;;;;;3.53;1.00;;;9.90;99.90;;;;;;4992719;28;20250;-74
2020/12/24 02:55:37;;;;;;;4.43;1.33;;;9.80;99.90;;;;;;4992824;28;20205;-77
2020/12/24 02:58:04;;;;;;;4.87;1.33;;;9.80;99.90;;;;;;4992773;28;20205;-76
2020/12/24 03:00:31;;;;;;;4.23;1.50;;;9.80;99.90;;;;;;4992594;28;20241;-74
2020/12/24 03:02:58;;;;;;;6.70;0.90;;;9.80;99.90;;;;;;4993083;28;20289;-75
2020/12/24 03:05:24;;;;;;;5.57;1.50;;;9.90;99.90;;;;;;4992446;28;20574;-76
2020/12/24 03:07:51;;;;;;;5.37;1.53;;;9.90;99.90;;;;;;4992624;28;20706;-76
2020/12/24 03:10:17;;;;;;;4.37;1.27;;;9.90;99.90;;;;;;4992018;28;20319;-77
2020/12/24 03:12:45;;;;;;;7.43;1.67;;;9.90;99.90;;;;;;4992511;28;20212;-75
2020/12/24 03:15:12;;;;;;;8.00;1.23;;;9.90;99.90;;;;;;4992282;28;20208;-74
2020/12/24 03:17:38;;;;;;;8.87;2.17;;;9.90;99.90;;;;;;4992619;28;20209;-76
2020/12/24 03:20:07;;;;;;;5.13;1.50;;;9.80;99.90;;;;;;4992548;28;20207;-74
2020/12/24 03:22:34;;;;;;;4.47;2.47;;;9.90;99.90;;;;;;4992215;28;20255;-75
2020/12/24 03:25:01;;;;;;;4.57;1.27;;;9.90;99.90;;;;;;4992607;28;20228;-74
2020/12/24 03:27:27;;;;;;;4.40;1.90;;;9.90;99.90;;;;;;4992612;28;20204;-76
2020/12/24 03:29:55;;;;;;;9.30;2.90;;;9.90;99.90;;;;;;4992249;28;20665;-77
2020/12/24 03:32:22;;;;;;;8.73;2.20;;;9.90;99.90;;;;;;4992272;28;21245;-77
2020/12/24 03:34:48;;;;;;;3.23;1.23;;;9.80;99.90;;;;;;4992424;28;20208;-76
2020/12/24 03:37:15;;;;;;;7.50;1.13;;;9.80;99.90;;;;;;4992269;28;20201;-77
2020/12/24 03:39:42;;;;;;;6.20;1.97;;;9.80;99.90;;;;;;4992033;28;20610;-77
2020/12/24 03:42:09;;;;;;;6.13;1.50;;;9.80;99.90;;;;;;4992057;28;20237;-77
2020/12/24 03:44:35;;;;;;;8.43;1.83;;;9.80;99.90;;;;;;4992027;28;20558;-74
2020/12/24 03:47:03;;;;;;;8.27;1.33;;;9.70;99.90;;;;;;4992338;28;20255;-75
2020/12/24 03:49:29;;;;;;;7.27;1.80;;;9.70;99.90;;;;;;4992245;28;20211;-75
2020/12/24 03:51:56;;;;;;;3.93;1.37;;;9.80;99.90;;;;;;4992167;28;20208;-77
2020/12/24 03:54:22;;;;;;;6.63;1.07;;;9.80;99.90;;;;;;4992045;28;20208;-77
2020/12/24 03:56:49;;;;;;;4.67;1.57;;;9.80;99.90;;;;;;4992123;28;20209;-77
2020/12/24 03:59:15;;;;;;;6.33;1.87;;;9.80;99.90;;;;;;4992258;28;20205;-77
2020/12/24 04:01:41;;;;;;;7.53;1.00;;;9.80;99.90;;;;;;4992110;28;20208;-77
2020/12/24 04:04:09;;;;;;;7.93;1.20;;;9.80;99.90;;;;;;4991990;28;20247;-74
2020/12/24 04:06:35;;;;;;;7.43;2.03;;;9.70;99.90;;;;;;4992076;28;20205;-74
2020/12/24 04:09:02;;;;;;;5.63;1.50;;;9.70;99.90;;;;;;4992231;28;20260;-74
2020/12/24 04:11:28;;;;;;;5.83;2.00;;;9.70;99.90;;;;;;4992043;28;20260;-75
2020/12/24 04:13:55;;;;;;;10.23;1.70;;;9.70;99.90;;;;;;4991838;28;20263;-77
2020/12/24 04:16:22;;;;;;;7.23;1.73;;;9.70;99.90;;;;;;4992093;28;20201;-76
2020/12/24 04:18:49;;;;;;;6.77;1.40;;;9.70;99.90;;;;;;4991756;28;20576;-75
2020/12/24 04:21:16;;;;;;;5.77;1.83;;;9.70;99.90;;;;;;4994675;28;20209;-77
2020/12/24 04:23:42;;;;;;;7.10;1.57;;;9.70;99.90;;;;;;4995269;28;20241;-74
2020/12/24 04:26:09;;;;;;;3.03;1.27;;;9.60;99.90;;;;;;4995393;28;20205;-75
2020/12/24 04:28:36;;;;;;;5.60;1.43;;;9.60;99.90;;;;;;4995596;28;20208;-74
2020/12/24 04:31:03;;;;;;;6.07;1.83;;;9.50;99.90;;;;;;4995613;28;20213;-76
2020/12/24 04:33:29;;;;;;;6.90;1.73;;;9.50;99.90;;;;;;4995289;28;20252;-74
2020/12/24 04:35:56;;;;;;;10.67;2.27;;;9.50;99.90;;;;;;4995279;28;20208;-77
2020/12/24 04:38:23;;;;;;;13.07;2.23;;;9.40;99.90;;;;;;4995215;28;20577;-75
2020/12/24 04:40:50;;;;;;;6.10;1.07;;;9.40;99.90;;;;;;4995204;28;20201;-76
2020/12/24 04:43:17;;;;;;;5.07;1.50;;;9.40;99.90;;;;;;4995046;28;20616;-74
2020/12/24 04:45:44;;;;;;;4.70;1.27;;;9.40;99.90;;;;;;4995087;28;20205;-74
2020/12/24 04:48:10;;;;;;;3.90;1.50;;;9.40;99.90;;;;;;4995109;28;20201;-77
2020/12/24 04:50:38;;;;;;;10.23;1.73;;;9.30;99.90;;;;;;4995022;28;20209;-74
2020/12/24 04:53:07;;;;;;;5.80;1.73;;;9.30;99.90;;;;;;4995170;28;20237;-77
2020/12/24 04:55:34;;;;;;;4.10;1.20;;;9.30;99.90;;;;;;4995202;28;20259;-77
2020/12/24 04:58:01;;;;;;;8.50;2.20;;;9.30;99.90;;;;;;4994905;28;20220;-76
2020/12/24 05:00:28;;;;;;;4.27;1.70;;;9.20;99.90;;;;;;4994830;28;20240;-75
2020/12/24 05:03:05;;;;;;;5.20;1.43;;;9.20;99.90;;;;;;4994659;28;20658;-77
2020/12/24 05:05:32;;;;;;;7.33;1.37;;;9.10;99.90;;;;;;4994628;28;20204;-77
2020/12/24 05:08:02;;;;;;;5.77;1.60;;;9.10;99.90;;;;;;4994824;28;20275;-74
2020/12/24 05:10:29;;;;;;;11.87;2.33;;;9.10;99.90;;;;;;4994449;28;20200;-74
2020/12/24 05:12:56;;;;;;;6.97;1.93;;;9.10;99.90;;;;;;4994551;28;20208;-74
2020/12/24 05:15:28;;;;;;;8.77;1.80;;;9.10;99.90;;;;;;4994516;28;20706;-76
2020/12/24 05:17:55;;;;;;;4.63;1.33;;;9.10;99.90;;;;;;4994495;28;20629;-75
2020/12/24 05:20:21;;;;;;;5.13;0.90;;;9.20;99.90;;;;;;4994355;28;20259;-75
2020/12/24 05:22:47;;;;;;;9.43;1.33;;;9.20;99.90;;;;;;4994158;28;20248;-77
2020/12/24 05:25:20;;;;;;;10.77;1.93;;;9.20;99.90;;;;;;4994262;28;20212;-76
2020/12/24 05:27:57;;;;;;;4.43;1.50;;;9.10;99.90;;;;;;4994209;28;20212;-74
2020/12/24 05:30:27;;;;;;;5.93;2.17;;;9.00;99.90;;;;;;4994251;28;20235;-74
2020/12/24 05:32:54;;;;;;;7.27;1.67;;;9.00;99.90;;;;;;4993742;28;20220;-74
2020/12/24 05:35:24;;;;;;;6.67;2.10;;;9.00;99.90;;;;;;4994383;28;20201;-74
2020/12/24 05:37:51;;;;;;;4.10;1.67;;;9.00;99.90;;;;;;4994243;28;20235;-74
2020/12/24 05:40:20;;;;;;;4.17;1.23;;;9.00;99.90;;;;;;4994181;28;20212;-76
2020/12/24 05:42:51;;;;;;;4.83;1.87;;;9.00;99.90;;;;;;4993919;28;20704;-74
2020/12/24 05:45:18;;;;;;;6.50;2.00;;;9.00;99.90;;;;;;4993934;28;20735;-75
2020/12/24 05:47:45;;;;;;;4.83;1.20;;;8.90;99.90;;;;;;4994088;28;20291;-76
2020/12/24 05:50:25;;;;;;;4.63;1.83;;;8.90;99.90;;;;;;4993897;28;20668;-76
2020/12/24 05:53:05;;;;;;;6.63;2.13;;;8.90;99.90;;;;;;4993892;28;20215;-74
2020/12/24 05:55:31;;;;;;;6.33;1.80;;;8.80;99.90;;;;;;4993692;28;20592;-76
2020/12/24 05:57:59;;;;;;;7.17;1.10;;;8.90;99.90;;;;;;4993659;28;20209;-74
2020/12/24 06:00:32;;;;;;;9.33;2.27;;;8.80;99.90;;;;;;4993855;28;20255;-75
2020/12/24 06:03:13;;;;;;;4.13;1.23;;;8.80;99.90;;;;;;4993689;28;20228;-75
2020/12/24 06:05:56;;;;;;;2.70;0.93;;;8.80;99.90;;;;;;4993873;28;20575;-74
2020/12/24 06:08:28;;;;;;;3.03;0.97;;;8.80;99.90;;;;;;4993334;28;20205;-76
2020/12/24 06:11:03;;;;;;;9.53;1.93;;;8.70;99.90;;;;;;4993525;28;20228;-74
2020/12/24 06:13:37;;;;;;;5.03;1.17;;;8.70;99.90;;;;;;4993339;28;20204;-74
2020/12/24 06:16:06;;;;;;;2.97;1.20;;;8.60;99.90;;;;;;4993358;28;20204;-74
2020/12/24 06:18:34;;;;;;;2.70;0.90;;;8.60;99.90;;;;;;4993292;28;20209;-74
2020/12/24 06:21:01;;;;;;;2.87;1.00;;;8.50;99.90;;;;;;4993466;28;20212;-75
2020/12/24 06:23:31;;;;;;;4.17;1.33;;;8.50;99.90;;;;;;4993164;28;20242;-75
2020/12/24 06:26:02;;;;;;;4.97;2.03;;;8.60;99.90;;;;;;4993439;28;20207;-76
2020/12/24 06:28:32;;;;;;;6.07;1.87;;;8.50;99.90;;;;;;4993137;28;20213;-75
2020/12/24 06:30:59;;;;;;;8.67;2.50;;;8.50;99.90;;;;;;4992982;28;20219;-74
2020/12/24 06:33:27;;;;;;;2.73;1.07;;;8.50;99.90;;;;;;4993045;28;20240;-74
2020/12/24 06:35:54;;;;;;;12.23;2.37;;;8.60;99.90;;;;;;4992970;28;20688;-75
2020/12/24 06:38:46;;;;;;;3.53;1.57;;;8.50;99.90;;;;;;4993158;28;20208;-75
2020/12/24 06:41:23;;;;;;;9.60;1.70;;;8.50;99.90;;;;;;4993153;28;20227;-75
2020/12/24 06:43:49;;;;;;;5.03;1.10;;;8.40;99.90;;;;;;4992091;28;20237;-74
2020/12/24 06:46:16;;;;;;;5.30;1.47;;;8.50;99.90;;;;;;4992928;28;20209;-75
2020/12/24 06:48:59;;;;;;;7.43;1.47;;;8.50;99.90;;;;;;4993076;28;20263;-74
2020/12/24 06:51:25;;;;;;;8.50;2.00;;;8.50;99.90;;;;;;4992779;28;20215;-76
2020/12/24 06:53:52;;;;;;;8.33;1.83;;;8.50;99.90;;;;;;4992632;28;20205;-76
2020/12/24 06:56:23;;;;;;;3.27;1.30;;;8.40;99.90;;;;;;4992584;28;20244;-76
2020/12/24 06:58:53;;;;;;;5.03;1.67;;;8.40;99.90;;;;;;4992503;28;20654;-75
2020/12/24 07:01:21;;;;;;;7.23;1.70;;;8.30;99.90;;;;;;4992658;28;20694;-74
2020/12/24 07:03:50;;;;;;;6.03;2.13;;;8.40;99.90;;;;;;4992592;28;20240;-76
2020/12/24 07:06:51;;;;;;;4.23;1.93;;;8.30;99.90;;;;;;4992481;28;20205;-74
2020/12/24 07:09:41;;;;;;;4.73;1.60;;;8.30;99.90;;;;;;4992628;28;20299;-75
2020/12/24 07:12:07;;;;;;;3.03;1.53;;;8.30;99.90;;;;;;4992620;28;20205;-76
2020/12/24 07:14:35;;;;;;;6.07;2.17;;;8.30;99.90;;;;;;4992215;28;20619;-75
2020/12/24 07:17:08;;;;;;;10.90;2.53;;;8.40;99.90;;;;;;4992328;28;20201;-75
2020/12/24 07:19:37;;;;;;;6.33;2.20;;;8.40;99.90;;;;;;4992435;28;20213;-75
2020/12/24 07:22:09;;;;;;;5.80;2.07;;;8.40;99.90;;;;;;4992399;28;20285;-76
2020/12/24 07:24:36;;;;;;;5.77;2.17;;;8.40;99.90;;;;;;4992169;28;20691;-76
2020/12/24 07:27:06;;;;;;;4.30;1.77;;;8.40;99.90;;;;;;4992300;28;20205;-76
2020/12/24 07:29:34;;;;;;;6.50;1.80;;;8.40;99.90;;;;;;4992501;28;20205;-76
2020/12/24 07:32:06;;;;;;;3.87;1.50;;;8.40;99.90;;;;;;4992362;28;20204;-75
2020/12/24 07:34:34;;;;;;;6.00;2.23;;;8.50;99.90;;;;;;4992193;28;20259;-76
2020/12/24 07:37:02;;;;;;;3.63;1.20;;;8.50;99.90;;;;;;4992115;28;20550;-76
2020/12/24 07:39:28;;;;;;;6.83;1.23;;;8.50;99.90;;;;;;4992121;28;20251;-75
2020/12/24 07:41:55;;;;;;;6.20;1.93;;;8.50;99.90;;;;;;4992165;28;20201;-76
2020/12/24 07:44:21;;;;;;;4.10;1.53;;;8.40;99.90;;;;;;4992125;28;20236;-76
2020/12/24 07:46:51;;;;;;;7.53;1.83;;;8.50;99.90;;;;;;4992280;28;20204;-75
2020/12/24 07:49:17;;;;;;;2.90;1.37;;;8.50;99.90;;;;;;4992072;28;20545;-74
2020/12/24 07:51:44;;;;;;;5.50;2.13;;;8.50;99.90;;;;;;4992486;28;20216;-75
2020/12/24 07:54:15;;;;;;;6.03;1.77;;;8.50;99.90;;;;;;4992079;28;20575;-74
2020/12/24 07:56:44;;;;;;;5.13;1.53;;;8.50;99.90;;;;;;4996206;28;20209;-75
2020/12/24 07:59:11;;;;;;;6.87;1.37;;;8.50;99.90;;;;;;4995898;28;20207;-74
2020/12/24 08:01:38;;;;;;;9.07;2.37;;;8.60;99.90;;;;;;4995958;28;20267;-74
2020/12/24 08:04:05;;;;;;;7.63;2.13;;;8.60;99.90;;;;;;4995897;28;20302;-76
2020/12/24 08:06:33;;;;;;;5.33;1.60;;;8.60;99.90;;;;;;4995870;28;20209;-75
2020/12/24 08:09:10;;;;;;;5.43;1.47;;;8.70;99.90;;;;;;4995647;28;20208;-74
2020/12/24 08:11:37;;;;;;;8.67;2.03;;;8.70;99.90;;;;;;4995972;28;20208;-74
2020/12/24 08:14:05;;;;;;;11.47;2.10;;;8.80;99.90;;;;;;4995859;28;20208;-75
2020/12/24 08:16:33;;;;;;;10.43;1.63;;;8.90;99.90;;;;;;4995684;28;20220;-74
2020/12/24 08:19:05;;;;;;;7.70;1.97;;;9.00;99.90;;;;;;4995436;28;20665;-74
2020/12/24 08:21:43;;;;;;;4.47;1.73;;;9.20;99.90;;;;;;4995394;28;20761;-75
2020/12/24 08:24:13;;;;;;;14.20;2.80;;;9.30;99.90;;;;;;4995038;28;20648;-75
2020/12/24 08:26:40;;;;;;;6.80;2.87;;;9.40;99.90;;;;;;4995606;28;20240;-76
2020/12/24 08:29:07;;;;;;;6.03;2.50;;;9.50;99.90;;;;;;4995405;28;20209;-74
2020/12/24 08:31:38;;;;;;;9.37;3.90;;;9.70;99.90;;;;;;4995242;28;20204;-75
2020/12/24 08:34:08;;;;;;;10.97;6.13;;;9.80;99.90;;;;;;4995031;28;20566;-75
2020/12/24 08:36:42;;;;;;;7.80;2.70;;;9.90;99.90;;;;;;4995478;28;20211;-75
2020/12/24 08:39:09;;;;;;;13.23;2.90;;;9.90;99.90;;;;;;4995169;28;20205;-74
2020/12/24 08:41:39;;;;;;;7.10;1.93;;;9.90;99.90;;;;;;4995057;28;20212;-76
2020/12/24 08:44:06;;;;;;;13.20;2.03;;;9.90;99.90;;;;;;4994828;28;20233;-75
2020/12/24 08:46:33;;;;;;;9.70;2.90;;;9.70;99.90;;;;;;4994847;28;20583;-75
2020/12/24 08:49:18;;;;;;;5.40;2.43;;;9.70;99.90;;;;;;4995160;28;20236;-74
2020/12/24 08:51:44;;;;;;;6.07;1.83;;;9.80;99.90;;;;;;4994981;28;20684;-76
2020/12/24 08:54:10;;;;;;;8.07;2.00;;;10.00;99.90;;;;;;4995000;28;20216;-75
2020/12/24 08:56:39;;;;;;;5.00;2.07;;;10.00;99.90;;;;;;4994769;28;20216;-75
2020/12/24 08:59:10;;;;;;;7.80;1.63;;;10.10;99.90;;;;;;4994964;28;20212;-75
2020/12/24 09:01:41;;;;;;;6.33;1.93;;;10.10;99.90;;;;;;4994913;28;20201;-74
2020/12/24 09:04:13;;;;;;;5.30;1.67;;;10.00;99.90;;;;;;4994786;28;20283;-75
2020/12/24 09:06:39;;;;;;;7.87;2.20;;;10.00;99.90;;;;;;4993621;28;20213;-75
2020/12/24 09:09:06;;;;;;;5.47;1.80;;;10.00;99.90;;;;;;4994518;28;20539;-75
2020/12/24 09:11:33;;;;;;;9.00;2.57;;;10.00;99.90;;;;;;4994748;28;20212;-74
2020/12/24 09:14:02;;;;;;;6.70;2.80;;;10.00;99.90;;;;;;4994677;28;20209;-74
2020/12/24 09:16:32;;;;;;;9.47;2.43;;;10.20;99.90;;;;;;4994379;28;20602;-75
2020/12/24 09:19:03;;;;;;;4.77;2.03;;;10.50;99.90;;;;;;4994506;28;20209;-76
2020/12/24 09:21:29;;;;;;;9.73;1.63;;;10.60;99.90;;;;;;4994330;28;20209;-75
2020/12/24 09:24:05;;;;;;;5.70;1.77;;;10.80;99.90;;;;;;4993870;28;20716;-77
2020/12/24 09:26:31;;;;;;;9.40;2.33;;;10.80;99.90;;;;;;4994310;28;20205;-76
2020/12/24 09:28:58;;;;;;;4.83;1.53;;;10.80;99.90;;;;;;4994349;28;20201;-77
2020/12/24 09:31:25;;;;;;;6.80;1.87;;;10.80;99.90;;;;;;4994239;28;20205;-76
2020/12/24 09:33:52;;;;;;;6.47;1.87;;;10.80;99.90;;;;;;4994215;28;20664;-76
2020/12/24 09:36:18;;;;;;;7.87;2.63;;;10.70;99.90;;;;;;4994300;28;20231;-76
2020/12/24 09:38:44;;;;;;;9.00;1.93;;;10.60;99.90;;;;;;4993971;28;20264;-76
2020/12/24 09:41:11;;;;;;;8.77;2.80;;;10.70;99.90;;;;;;4993961;28;20579;-75
2020/12/24 09:43:37;;;;;;;3.80;2.37;;;10.70;99.90;;;;;;4993867;28;20314;-76
2020/12/24 09:46:04;;;;;;;5.30;1.90;;;10.80;99.90;;;;;;4993938;28;20201;-75
2020/12/24 09:48:31;;;;;;;5.20;1.60;;;11.10;99.90;;;;;;4993948;28;20240;-77
2020/12/24 09:50:59;;;;;;;3.90;2.07;;;11.20;99.90;;;;;;4993770;28;20251;-74
2020/12/24 09:53:25;;;;;;;6.00;1.60;;;11.00;99.90;;;;;;4994033;28;20554;-77
2020/12/24 09:55:52;;;;;;;7.13;1.53;;;10.90;99.90;;;;;;4993947;28;20584;-74
2020/12/24 09:58:18;;;;;;;6.17;2.10;;;11.10;99.90;;;;;;4994113;28;20205;-75
2020/12/24 10:00:45;;;;;;;10.00;2.80;;;12.20;99.90;;;;;;4993696;28;20212;-74
2020/12/24 10:03:11;;;;;;;7.93;1.70;;;14.80;99.90;;;;;;4993485;28;20231;-76
2020/12/24 10:05:38;;;;;;;5.57;1.80;;;15.60;99.90;;;;;;4993565;28;20216;-74
2020/12/24 10:08:05;;;;;;;8.07;2.13;;;15.70;99.90;;;;;;4993639;28;20212;-75
2020/12/24 10:10:31;;;;;;;4.25;1.77;;;14.60;99.90;;;;;;4993672;28;20236;-75
2020/12/24 10:12:57;;;;;;;5.78;2.00;;;15.20;99.90;;;;;;4993556;28;20205;-76
2020/12/24 10:15:24;;;;;;;9.02;2.85;;;14.80;99.90;;;;;;4993272;28;20566;-72
2020/12/24 10:17:50;;;;;;;6.95;2.25;;;12.70;99.90;;;;;;4993284;28;20209;-73
2020/12/24 10:20:17;;;;;;;3.35;1.52;;;11.90;99.90;;;;;;4993420;28;20680;-74
2020/12/24 10:22:44;;;;;;;5.25;1.85;;;12.90;99.90;;;;;;4992997;28;20219;-73
2020/12/24 10:25:10;;;;;;;8.55;1.55;;;14.00;99.90;;;;;;4993177;28;20707;-73
2020/12/24 10:27:37;;;;;;;6.85;1.70;;;14.20;99.90;;;;;;4993089;28;20208;-75
2020/12/24 10:30:03;;;;;;;7.50;2.28;;;14.10;99.90;;;;;;4993036;28;20204;-75
2020/12/24 10:32:30;;;;;;;6.53;1.88;;;14.40;99.90;;;;;;4993067;28;20259;-76
2020/12/24 10:34:56;;;;;;;9.75;2.42;;;15.40;99.90;;;;;;4993058;28;20211;-75
2020/12/24 10:37:23;;;;;;;11.45;2.25;;;15.50;99.90;;;;;;4993583;28;20216;-74
2020/12/24 10:39:50;;;;;;;6.82;1.60;;;13.70;99.90;;;;;;4992979;28;20581;-75
2020/12/24 10:42:16;;;;;;;4.18;1.42;;;12.50;99.90;;;;;;4993103;28;20207;-76
2020/12/24 10:44:43;;;;;;;6.00;1.95;;;11.90;99.90;;;;;;4992744;28;20712;-76
2020/12/24 10:47:09;;;;;;;5.47;2.42;;;11.60;99.90;;;;;;4992784;28;20208;-75
2020/12/24 10:49:38;;;;;;;3.97;1.60;;;11.60;99.90;;;;;;4993024;28;20212;-77
2020/12/24 10:52:04;;;;;;;5.70;1.83;;;11.60;99.90;;;;;;4992967;28;20207;-75
2020/12/24 10:54:30;;;;;;;8.73;2.13;;;11.60;99.90;;;;;;4992604;28;20608;-74
2020/12/24 10:56:58;;;;;;;6.20;2.35;;;11.60;99.90;;;;;;4992746;28;20215;-75
2020/12/24 10:59:24;;;;;;;6.72;1.95;;;11.60;99.90;;;;;;4992895;28;20669;-76
2020/12/24 11:01:51;;;;;;;8.05;1.75;;;11.70;99.90;;;;;;4992660;28;20209;-76
2020/12/24 11:04:17;;;;;;;3.67;1.67;;;11.80;99.90;;;;;;4992518;28;20247;-76
2020/12/24 11:06:45;;;;;;;2.50;1.23;;;11.80;99.90;;;;;;4992618;28;20208;-76
2020/12/24 11:09:13;;;;;;;4.10;1.10;;;11.80;99.90;;;;;;4992594;28;20204;-77
2020/12/24 11:11:39;;;;;;;5.75;1.95;;;11.90;99.90;;;;;;4992613;28;20212;-77
2020/12/24 11:14:07;;;;;;;10.20;1.70;;;11.90;99.90;;;;;;4992407;28;20591;-76
2020/12/24 11:16:34;;;;;;;8.70;1.63;;;11.90;99.90;;;;;;4992402;28;20208;-76
2020/12/24 11:19:00;;;;;;;4.00;1.73;;;11.90;99.90;;;;;;4992497;28;20216;-76
2020/12/24 11:21:31;;;;;;;3.92;1.40;;;11.90;99.90;;;;;;4992804;28;20212;-76
2020/12/24 11:24:04;;;;;;;10.27;1.38;;;12.00;99.90;;;;;;4992510;28;20241;-76
2020/12/24 11:26:31;;;;;;;3.27;1.50;;;12.10;99.90;;;;;;4992314;28;20204;-75
2020/12/24 11:28:57;;;;;;;13.35;2.97;;;12.10;99.90;;;;;;4992358;28;20596;-76
2020/12/24 11:31:26;;;;;;;9.18;1.60;;;12.30;99.90;;;;;;4992339;28;20212;-76
2020/12/24 11:33:52;;;;;;;3.00;1.75;;;12.20;99.90;;;;;;4992361;28;20209;-75
2020/12/24 11:36:20;;;;;;;4.15;1.50;;;12.10;99.90;;;;;;4992214;28;20712;-76
2020/12/24 11:38:47;;;;;;;4.18;1.55;;;12.20;99.90;;;;;;4992345;28;20205;-76
2020/12/24 11:41:17;;;;;;;7.63;1.70;;;12.40;99.90;;;;;;4992195;28;20205;-77
2020/12/24 11:43:44;;;;;;;8.88;1.67;;;12.10;99.90;;;;;;4992278;28;20272;-76
2020/12/24 11:46:11;;;;;;;10.13;3.00;;;12.10;99.90;;;;;;4992088;28;20668;-76
2020/12/24 11:48:39;;;;;;;6.73;1.73;;;12.10;99.90;;;;;;4992337;28;20205;-76
2020/12/24 11:51:07;;;;;;;5.77;1.80;;;12.10;99.90;;;;;;4992249;28;20201;-77
2020/12/24 11:53:33;;;;;;;6.28;1.67;;;11.70;99.90;;;;;;4992125;28;20212;-77
2020/12/24 11:56:00;;;;;;;9.02;2.35;;;11.80;99.90;;;;;;4991967;28;20628;-74
2020/12/24 11:58:26;;;;;;;5.97;1.35;;;11.80;99.90;;;;;;4992489;28;20212;-75
2020/12/24 12:00:53;;;;;;;4.97;1.92;;;11.80;99.90;;;;;;4992141;28;20209;-77
2020/12/24 12:03:19;;;;;;;4.30;1.63;;;11.80;99.90;;;;;;4992007;28;20736;-75
2020/12/24 12:05:46;;;;;;;9.13;3.05;;;11.90;99.90;;;;;;4991954;28;20729;-76
2020/12/24 12:08:13;;;;;;;5.22;1.83;;;11.90;99.90;;;;;;4992001;28;20227;-75
2020/12/24 12:10:39;;;;;;;7.47;2.43;;;11.80;99.90;;;;;;4991748;28;20637;-77
2020/12/24 12:13:05;;;;;;;3.20;1.38;;;11.70;99.90;;;;;;4991895;28;20213;-77
2020/12/24 12:15:32;;;;;;;3.30;1.60;;;11.80;99.90;;;;;;4992118;28;20252;-76
2020/12/24 12:17:58;;;;;;;8.70;1.73;;;11.70;99.90;;;;;;4992124;28;20677;-76
2020/12/24 12:20:25;;;;;;;6.57;2.20;;;11.90;99.90;;;;;;4991861;28;20205;-76
2020/12/24 12:22:54;;;;;;;8.32;1.55;;;11.90;99.90;;;;;;4991480;28;20275;-76
2020/12/24 12:25:20;;;;;;;4.20;1.98;;;11.90;99.90;;;;;;4991763;28;20209;-76
2020/12/24 12:27:47;;;;;;;4.85;1.88;;;11.80;99.90;;;;;;4992086;28;20287;-76
2020/12/24 12:30:14;;;;;;;7.72;2.25;;;11.80;99.90;;;;;;4991905;28;20207;-77
2020/12/24 12:32:40;;;;;;;5.32;1.58;;;11.90;99.90;;;;;;4991872;28;20205;-75
2020/12/24 12:35:08;;;;;;;8.37;2.43;;;11.70;99.90;;;;;;4991787;28;20209;-76
2020/12/24 12:37:34;;;;;;;5.03;1.43;;;11.60;99.90;;;;;;4991619;28;20206;-76
2020/12/24 12:40:02;;;;;;;5.50;1.63;;;11.50;99.90;;;;;;4992170;28;20205;-76
2020/12/24 12:42:28;;;;;;;8.03;2.00;;;11.60;99.90;;;;;;4995065;28;20216;-77
2020/12/24 12:44:54;;;;;;;6.33;2.90;;;11.50;99.90;;;;;;4995018;28;20237;-76
2020/12/24 12:47:21;;;;;;;4.27;1.70;;;11.50;99.90;;;;;;4995117;28;20260;-77
2020/12/24 12:49:47;;;;;;;5.00;1.30;;;11.60;99.90;;;;;;4995122;28;20279;-77
2020/12/24 12:52:14;;;;;;;6.43;1.70;;;11.50;99.90;;;;;;4994924;28;20669;-76
2020/12/24 12:54:40;;;;;;;4.80;1.40;;;11.50;99.90;;;;;;4995115;28;20208;-76